Time,TemperatureF,DewpointF,PressureIn,WindDirection,WindDirectionDegrees,WindSpeedMPH,WindSpeedGustMPH,Humidity,HourlyPrecipIn,Conditions,Clouds,dailyrainin,SoftwareType,DateUTC
2013-08-21 00:01:00,78.1,68.0,29.74,South,180,2.5,2.5,71,0.00,,,0.00,WUHU216HW,2013-08-21 05:01:00,
2013-08-21 00:06:00,77.8,68.1,29.74,SSE,158,2.2,2.7,72,0.00,,,0.00,WUHU216HW,2013-08-21 05:06:00,
2013-08-21 00:11:00,77.4,67.7,29.74,SE,135,1.8,2.7,72,0.00,,,0.00,WUHU216HW,2013-08-21 05:11:00,
2013-08-21 00:16:00,77.2,67.9,29.74,SE,135,1.8,2.7,73,0.00,,,0.00,WUHU216HW,2013-08-21 05:16:00,
2013-08-21 00:21:00,77.2,67.9,29.74,SE,135,1.8,2.5,73,0.00,,,0.00,WUHU216HW,2013-08-21 05:21:00,
2013-08-21 00:26:00,77.4,68.0,29.75,SSE,158,2.2,2.5,73,0.00,,,0.00,WUHU216HW,2013-08-21 05:26:00,
2013-08-21 00:31:00,77.8,68.1,29.75,SSE,158,3.1,3.1,72,0.00,,,0.00,WUHU216HW,2013-08-21 05:31:00,
2013-08-21 00:36:00,77.2,67.9,29.75,SE,135,2.2,3.4,73,0.00,,,0.00,WUHU216HW,2013-08-21 05:36:00,
2013-08-21 00:41:00,77.0,68.1,29.75,SSE,158,1.8,3.4,74,0.00,,,0.00,WUHU216HW,2013-08-21 05:41:00,
2013-08-21 00:46:00,76.7,68.1,29.75,SSE,158,2.9,2.9,75,0.00,,,0.00,WUHU216HW,2013-08-21 05:46:00,
2013-08-21 00:51:00,76.1,67.7,29.75,SSE,158,2.5,3.4,75,0.00,,,0.00,WUHU216HW,2013-08-21 05:51:00,
2013-08-21 00:56:00,76.0,67.9,29.75,SSE,158,3.4,3.6,76,0.00,,,0.00,WUHU216HW,2013-08-21 05:56:00,
2013-08-21 01:01:00,75.6,68.0,29.75,SSE,158,3.1,3.8,77,0.00,,,0.00,WUHU216HW,2013-08-21 06:01:00,
2013-08-21 01:06:00,75.4,67.8,29.75,SSE,158,2.9,4.0,77,0.00,,,0.00,WUHU216HW,2013-08-21 06:06:00,
2013-08-21 01:11:00,75.4,67.8,29.75,SSE,158,3.1,4.0,77,0.00,,,0.00,WUHU216HW,2013-08-21 06:11:00,
2013-08-21 01:16:00,75.4,68.1,29.75,SSE,158,2.7,3.6,78,0.00,,,0.00,WUHU216HW,2013-08-21 06:16:00,
2013-08-21 01:21:00,75.2,68.0,29.75,SSE,158,2.5,3.6,78,0.00,,,0.00,WUHU216HW,2013-08-21 06:21:00,
2013-08-21 01:26:00,75.4,68.1,29.75,SE,135,3.1,3.4,78,0.00,,,0.00,WUHU216HW,2013-08-21 06:26:00,
2013-08-21 01:30:00,76.1,68.4,29.75,SE,135,2.9,3.8,77,0.00,,,0.00,WUHU216HW,2013-08-21 06:30:00,
2013-08-21 01:35:00,76.0,68.2,29.75,SE,135,3.6,3.8,77,0.00,,,0.00,WUHU216HW,2013-08-21 06:35:00,
2013-08-21 01:40:00,75.4,68.1,29.74,SE,135,4.0,4.0,78,0.00,,,0.00,WUHU216HW,2013-08-21 06:40:00,
2013-08-21 01:45:00,75.2,68.4,29.75,SSE,158,3.6,4.5,79,0.00,,,0.00,WUHU216HW,2013-08-21 06:45:00,
2013-08-21 01:50:00,75.1,68.2,29.75,SSE,158,4.0,4.7,79,0.00,,,0.00,WUHU216HW,2013-08-21 06:50:00,
2013-08-21 01:55:00,74.7,68.2,29.75,SE,135,3.8,4.7,80,0.00,,,0.00,WUHU216HW,2013-08-21 06:55:00,
2013-08-21 02:00:00,74.5,68.4,29.75,South,180,3.1,4.5,81,0.00,,,0.00,WUHU216HW,2013-08-21 07:00:00,
2013-08-21 02:05:00,74.5,68.4,29.75,SSE,158,3.8,3.8,81,0.00,,,0.00,WUHU216HW,2013-08-21 07:05:00,
2013-08-21 02:10:00,74.2,68.1,29.75,South,180,3.6,4.5,81,0.00,,,0.00,WUHU216HW,2013-08-21 07:10:00,
2013-08-21 02:15:00,74.2,68.4,29.75,SSE,158,3.6,4.5,82,0.00,,,0.00,WUHU216HW,2013-08-21 07:15:00,
2013-08-21 02:20:00,74.2,68.4,29.75,SSE,158,3.4,3.6,82,0.00,,,0.00,WUHU216HW,2013-08-21 07:20:00,
2013-08-21 02:25:00,74.0,68.2,29.75,SSW,203,2.2,3.4,82,0.00,,,0.00,WUHU216HW,2013-08-21 07:25:00,
2013-08-21 02:30:00,74.2,68.4,29.76,SSE,158,2.0,3.4,82,0.00,,,0.00,WUHU216HW,2013-08-21 07:30:00,
2013-08-21 02:35:00,74.5,68.8,29.76,SSE,158,3.4,4.0,82,0.00,,,0.00,WUHU216HW,2013-08-21 07:35:00,
2013-08-21 02:40:00,74.2,68.4,29.75,South,180,3.1,4.0,82,0.00,,,0.00,WUHU216HW,2013-08-21 07:40:00,
2013-08-21 02:45:00,74.0,68.5,29.75,SSE,158,2.9,3.8,83,0.00,,,0.00,WUHU216HW,2013-08-21 07:45:00,
2013-08-21 02:50:00,73.6,68.1,29.76,SE,135,2.0,3.6,83,0.00,,,0.00,WUHU216HW,2013-08-21 07:50:00,
2013-08-21 02:55:00,73.6,68.5,29.76,SSE,158,1.3,2.9,84,0.00,,,0.00,WUHU216HW,2013-08-21 07:55:00,
2013-08-21 03:00:00,73.6,68.5,29.76,SSE,158,2.2,2.5,84,0.00,,,0.00,WUHU216HW,2013-08-21 08:00:00,
2013-08-21 03:05:00,73.6,68.5,29.76,SSE,158,1.8,2.2,84,0.00,,,0.00,WUHU216HW,2013-08-21 08:05:00,
2013-08-21 03:10:00,73.8,68.3,29.76,SSE,158,0.4,1.8,83,0.00,,,0.00,WUHU216HW,2013-08-21 08:10:00,
2013-08-21 03:15:00,74.0,68.5,29.76,SSE,158,0.0,1.1,83,0.00,,,0.00,WUHU216HW,2013-08-21 08:15:00,
2013-08-21 03:20:00,74.2,68.4,29.76,SSE,158,0.7,0.9,82,0.00,,,0.00,WUHU216HW,2013-08-21 08:20:00,
2013-08-21 03:25:00,74.2,68.7,29.76,SSE,158,1.8,1.8,83,0.00,,,0.00,WUHU216HW,2013-08-21 08:25:00,
2013-08-21 03:30:00,74.3,68.9,29.76,SSE,158,1.1,1.8,83,0.00,,,0.00,WUHU216HW,2013-08-21 08:30:00,
2013-08-21 03:35:00,74.5,69.0,29.76,South,180,0.9,1.8,83,0.00,,,0.00,WUHU216HW,2013-08-21 08:35:00,
2013-08-21 03:40:00,75.2,69.5,29.76,South,180,1.1,2.2,82,0.00,,,0.00,WUHU216HW,2013-08-21 08:40:00,
2013-08-21 03:45:00,75.6,69.4,29.76,SSE,158,1.3,2.2,81,0.00,,,0.00,WUHU216HW,2013-08-21 08:45:00,
2013-08-21 03:50:00,75.2,69.1,29.76,South,180,1.1,1.8,81,0.00,,,0.00,WUHU216HW,2013-08-21 08:50:00,
2013-08-21 03:55:00,75.1,69.0,29.76,SSE,158,1.1,1.8,81,0.00,,,0.00,WUHU216HW,2013-08-21 08:55:00,
2013-08-21 04:00:00,74.9,68.8,29.76,SSE,158,1.1,1.8,81,0.00,,,0.00,WUHU216HW,2013-08-21 09:00:00,
2013-08-21 04:05:00,74.7,69.0,29.76,SE,135,1.6,1.6,82,0.00,,,0.00,WUHU216HW,2013-08-21 09:05:00,
2013-08-21 04:10:00,74.5,68.8,29.76,SE,135,0.9,1.6,82,0.00,,,0.00,WUHU216HW,2013-08-21 09:10:00,
2013-08-21 04:15:00,74.5,69.0,29.76,SE,135,1.1,1.3,83,0.00,,,0.00,WUHU216HW,2013-08-21 09:15:00,
2013-08-21 04:20:00,74.5,68.8,29.76,SSE,158,1.1,1.1,82,0.00,,,0.00,WUHU216HW,2013-08-21 09:20:00,
2013-08-21 04:25:00,74.5,68.8,29.76,SSE,158,1.1,1.1,82,0.00,,,0.00,WUHU216HW,2013-08-21 09:25:00,
2013-08-21 04:30:00,74.5,69.0,29.76,SSE,158,1.1,1.3,83,0.00,,,0.00,WUHU216HW,2013-08-21 09:30:00,
2013-08-21 04:35:00,74.5,69.0,29.76,SSE,158,1.1,1.3,83,0.00,,,0.00,WUHU216HW,2013-08-21 09:35:00,
2013-08-21 04:40:00,74.5,69.0,29.76,SSE,158,0.9,1.3,83,0.00,,,0.00,WUHU216HW,2013-08-21 09:40:00,
2013-08-21 04:45:00,74.9,69.4,29.76,SSE,158,0.4,1.1,83,0.00,,,0.00,WUHU216HW,2013-08-21 09:45:00,
2013-08-21 04:50:00,75.8,69.6,29.76,SSE,158,0.0,1.1,81,0.00,,,0.00,WUHU216HW,2013-08-21 09:50:00,
2013-08-21 04:55:00,76.0,69.4,29.76,SSE,158,0.0,0.7,80,0.00,,,0.00,WUHU216HW,2013-08-21 09:55:00,
2013-08-21 05:00:00,75.6,69.1,29.76,SSE,158,0.0,0.0,80,0.00,,,0.00,WUHU216HW,2013-08-21 10:00:00,
2013-08-21 05:05:00,75.4,69.0,29.76,SSE,158,0.0,0.0,80,0.00,,,0.00,WUHU216HW,2013-08-21 10:05:00,
2013-08-21 05:10:00,75.2,68.8,29.76,SSE,158,0.0,0.0,80,0.00,,,0.00,WUHU216HW,2013-08-21 10:10:00,
2013-08-21 05:15:00,75.1,69.0,29.76,SSE,158,0.0,0.0,81,0.00,,,0.00,WUHU216HW,2013-08-21 10:15:00,
2013-08-21 05:20:00,75.1,69.0,29.76,SSE,158,0.0,0.0,81,0.00,,,0.00,WUHU216HW,2013-08-21 10:20:00,
2013-08-21 05:25:00,74.9,68.8,29.76,SSE,158,0.0,0.0,81,0.00,,,0.00,WUHU216HW,2013-08-21 10:25:00,
2013-08-21 05:30:00,74.9,68.8,29.76,SE,135,0.0,0.4,81,0.00,,,0.00,WUHU216HW,2013-08-21 10:30:00,
2013-08-21 05:35:00,74.9,68.8,29.76,SE,135,0.0,0.4,81,0.00,,,0.00,WUHU216HW,2013-08-21 10:35:00,
2013-08-21 05:40:00,74.9,68.8,29.76,SE,135,0.0,0.2,81,0.00,,,0.00,WUHU216HW,2013-08-21 10:40:00,
2013-08-21 05:45:00,75.1,69.3,29.76,ESE,113,0.4,1.1,82,0.00,,,0.00,WUHU216HW,2013-08-21 10:45:00,
2013-08-21 05:50:00,75.8,69.6,29.76,ESE,113,1.3,1.8,81,0.00,,,0.00,WUHU216HW,2013-08-21 10:50:00,
2013-08-21 05:55:00,75.8,69.6,29.76,SE,135,1.8,1.8,81,0.00,,,0.00,WUHU216HW,2013-08-21 10:55:00,
2013-08-21 06:00:00,75.4,69.3,29.76,SE,135,1.8,2.0,81,0.00,,,0.00,WUHU216HW,2013-08-21 11:00:00,
2013-08-21 06:05:00,74.7,69.0,29.76,SSE,158,1.3,2.0,82,0.00,,,0.00,WUHU216HW,2013-08-21 11:05:00,
2013-08-21 06:10:00,74.5,68.8,29.75,SE,135,1.1,1.8,82,0.00,,,0.00,WUHU216HW,2013-08-21 11:10:00,
2013-08-21 06:15:00,74.5,69.0,29.76,SE,135,1.1,1.3,83,0.00,,,0.00,WUHU216HW,2013-08-21 11:15:00,
2013-08-21 06:20:00,74.3,69.2,29.76,SE,135,1.6,2.0,84,0.00,,,0.00,WUHU216HW,2013-08-21 11:20:00,
2013-08-21 06:25:00,74.2,69.0,29.76,SE,135,0.4,2.0,84,0.00,,,0.00,WUHU216HW,2013-08-21 11:25:00,
2013-08-21 06:30:00,74.2,68.7,29.76,SE,135,1.1,1.8,83,0.00,,,0.00,WUHU216HW,2013-08-21 11:30:00,
2013-08-21 06:35:00,74.2,69.0,29.76,SE,135,1.8,1.8,84,0.00,,,0.00,WUHU216HW,2013-08-21 11:35:00,
2013-08-21 06:40:00,74.0,69.2,29.76,SE,135,2.0,2.2,85,0.00,,,0.00,WUHU216HW,2013-08-21 11:40:00,
2013-08-21 06:45:00,73.8,69.0,29.76,SE,135,2.0,2.5,85,0.00,,,0.00,WUHU216HW,2013-08-21 11:45:00,
2013-08-21 06:50:00,73.6,69.2,29.76,SE,135,2.7,2.7,86,0.00,,,0.00,WUHU216HW,2013-08-21 11:50:00,
2013-08-21 06:55:00,73.8,69.4,29.77,SE,135,1.8,2.9,86,0.00,,,0.00,WUHU216HW,2013-08-21 11:55:00,
2013-08-21 07:00:00,74.2,69.0,29.77,SSE,158,1.8,2.9,84,0.00,,,0.00,WUHU216HW,2013-08-21 12:00:00,
2013-08-21 07:05:00,73.6,68.9,29.77,SE,135,1.8,2.5,85,0.00,,,0.00,WUHU216HW,2013-08-21 12:05:00,
2013-08-21 07:10:00,73.3,68.5,29.77,SE,135,1.6,2.2,85,0.00,,,0.00,WUHU216HW,2013-08-21 12:10:00,
2013-08-21 07:15:00,73.3,68.9,29.77,SE,135,1.1,2.0,86,0.00,,,0.00,WUHU216HW,2013-08-21 12:15:00,
2013-08-21 07:20:00,73.4,68.7,29.77,SE,135,0.0,1.8,85,0.00,,,0.00,WUHU216HW,2013-08-21 12:20:00,
2013-08-21 07:25:00,73.6,68.9,29.77,ESE,113,1.8,1.8,85,0.00,,,0.00,WUHU216HW,2013-08-21 12:25:00,
2013-08-21 07:30:00,73.8,69.0,29.78,SE,135,0.9,1.8,85,0.00,,,0.00,WUHU216HW,2013-08-21 12:30:00,
2013-08-21 07:35:00,73.8,69.4,29.78,SE,135,1.1,1.8,86,0.00,,,0.00,WUHU216HW,2013-08-21 12:35:00,
2013-08-21 07:40:00,73.8,69.4,29.78,SE,135,0.9,1.8,86,0.00,,,0.00,WUHU216HW,2013-08-21 12:40:00,
2013-08-21 07:45:00,73.8,69.4,29.78,SE,135,0.7,1.8,86,0.00,,,0.00,WUHU216HW,2013-08-21 12:45:00,
2013-08-21 07:50:00,74.0,69.6,29.78,ESE,113,0.4,1.8,86,0.00,,,0.00,WUHU216HW,2013-08-21 12:50:00,
2013-08-21 07:55:00,74.2,69.4,29.79,ESE,113,1.1,1.6,85,0.00,,,0.00,WUHU216HW,2013-08-21 12:55:00,
2013-08-21 08:00:00,74.5,70.1,29.79,SE,135,0.7,1.3,86,0.00,,,0.00,WUHU216HW,2013-08-21 13:00:00,
2013-08-21 08:05:00,76.0,70.8,29.80,ESE,113,0.9,1.3,84,0.00,,,0.00,WUHU216HW,2013-08-21 13:05:00,
2013-08-21 08:10:00,76.5,70.9,29.79,ESE,113,0.9,1.8,83,0.00,,,0.00,WUHU216HW,2013-08-21 13:10:00,
2013-08-21 08:15:00,76.7,70.7,29.79,ESE,113,0.0,1.8,82,0.00,,,0.00,WUHU216HW,2013-08-21 13:15:00,
2013-08-21 08:20:00,76.7,70.7,29.79,SE,135,0.2,1.1,82,0.00,,,0.00,WUHU216HW,2013-08-21 13:20:00,
2013-08-21 08:25:00,77.0,71.1,29.80,SSW,203,0.7,1.1,82,0.00,,,0.00,WUHU216HW,2013-08-21 13:25:00,
2013-08-21 08:30:00,77.8,71.5,29.80,SE,135,0.2,1.1,81,0.00,,,0.00,WUHU216HW,2013-08-21 13:30:00,
2013-08-21 08:35:00,79.4,72.7,29.79,WSW,248,0.9,1.3,80,0.00,,,0.00,WUHU216HW,2013-08-21 13:35:00,
2013-08-21 08:40:00,80.6,72.8,29.80,WSW,248,0.0,1.6,77,0.00,,,0.00,WUHU216HW,2013-08-21 13:40:00,
2013-08-21 08:45:00,81.0,72.4,29.80,SE,135,0.0,1.8,75,0.00,,,0.00,WUHU216HW,2013-08-21 13:45:00,
2013-08-21 08:50:00,81.0,72.7,29.80,SSE,158,1.1,2.0,76,0.00,,,0.00,WUHU216HW,2013-08-21 13:50:00,
2013-08-21 08:55:00,81.2,72.9,29.80,WSW,248,2.5,4.0,76,0.00,,,0.00,WUHU216HW,2013-08-21 13:55:00,
2013-08-21 09:00:00,81.2,72.9,29.80,WSW,248,4.3,4.9,76,0.00,,,0.00,WUHU216HW,2013-08-21 14:00:00,
2013-08-21 09:05:00,81.0,72.7,29.80,South,180,4.5,7.2,76,0.00,,,0.00,WUHU216HW,2013-08-21 14:05:00,
2013-08-21 09:10:00,80.3,72.8,29.80,South,180,4.7,7.6,78,0.00,,,0.00,WUHU216HW,2013-08-21 14:10:00,
2013-08-21 09:15:00,80.3,72.8,29.81,South,180,3.1,9.2,78,0.00,,,0.00,WUHU216HW,2013-08-21 14:15:00,
2013-08-21 09:20:00,80.6,73.2,29.81,SW,225,6.9,9.2,78,0.00,,,0.00,WUHU216HW,2013-08-21 14:20:00,
2013-08-21 09:25:00,80.6,72.8,29.80,South,180,6.3,6.9,77,0.00,,,0.00,WUHU216HW,2013-08-21 14:25:00,
2013-08-21 09:30:00,80.3,72.8,29.80,South,180,4.9,7.6,78,0.00,,,0.00,WUHU216HW,2013-08-21 14:30:00,
2013-08-21 09:35:00,79.9,72.9,29.80,South,180,6.5,8.5,79,0.00,,,0.00,WUHU216HW,2013-08-21 14:35:00,
2013-08-21 09:40:00,80.3,72.8,29.80,South,180,7.6,9.6,78,0.00,,,0.00,WUHU216HW,2013-08-21 14:40:00,
2013-08-21 09:45:00,81.2,73.4,29.80,South,180,3.8,9.8,77,0.00,,,0.00,WUHU216HW,2013-08-21 14:45:00,
2013-08-21 09:50:00,82.1,73.8,29.80,South,180,8.7,9.8,76,0.00,,,0.00,WUHU216HW,2013-08-21 14:50:00,
2013-08-21 09:55:00,83.2,73.6,29.80,WSW,248,3.8,8.9,73,0.00,,,0.00,WUHU216HW,2013-08-21 14:55:00,
2013-08-21 10:00:00,83.5,73.5,29.80,South,180,8.5,8.7,72,0.00,,,0.00,WUHU216HW,2013-08-21 15:00:00,
2013-08-21 10:05:00,84.2,73.8,29.80,SE,135,4.5,9.2,71,0.00,,,0.00,WUHU216HW,2013-08-21 15:05:00,
2013-08-21 10:10:00,84.2,73.8,29.80,SSE,158,6.7,9.2,71,0.00,,,0.00,WUHU216HW,2013-08-21 15:10:00,
2013-08-21 10:15:00,84.4,73.2,29.80,SSE,158,2.0,8.5,69,0.00,,,0.00,WUHU216HW,2013-08-21 15:15:00,
2013-08-21 10:20:00,84.2,73.8,29.80,South,180,3.8,6.7,71,0.00,,,0.00,WUHU216HW,2013-08-21 15:20:00,
2013-08-21 10:25:00,85.3,73.6,29.80,ESE,113,3.8,5.6,68,0.00,,,0.00,WUHU216HW,2013-08-21 15:25:00,
2013-08-21 10:30:00,86.6,74.4,29.80,WSW,248,6.7,6.7,67,0.00,,,0.00,WUHU216HW,2013-08-21 15:30:00,
2013-08-21 10:35:00,86.9,73.3,29.80,West,270,3.4,6.7,64,0.00,,,0.00,WUHU216HW,2013-08-21 15:35:00,
2013-08-21 10:40:00,87.5,73.8,29.80,SW,225,4.7,6.7,64,0.00,,,0.00,WUHU216HW,2013-08-21 15:40:00,
2013-08-21 10:45:00,87.8,72.8,29.80,SE,135,2.5,6.0,61,0.00,,,0.00,WUHU216HW,2013-08-21 15:45:00,
2013-08-21 10:50:00,88.0,73.5,29.80,West,270,4.0,6.7,62,0.00,,,0.00,WUHU216HW,2013-08-21 15:50:00,
2013-08-21 10:55:00,88.2,73.6,29.80,SSW,203,3.6,6.7,62,0.00,,,0.00,WUHU216HW,2013-08-21 15:55:00,
2013-08-21 11:00:00,87.7,73.1,29.80,SSW,203,3.4,6.5,62,0.00,,,0.00,WUHU216HW,2013-08-21 16:00:00,
2013-08-21 11:05:00,87.1,73.0,29.80,South,180,3.4,6.5,63,0.00,,,0.00,WUHU216HW,2013-08-21 16:05:00,
2013-08-21 11:10:00,86.8,72.6,29.80,WSW,248,2.7,6.3,63,0.00,,,0.00,WUHU216HW,2013-08-21 16:10:00,
2013-08-21 11:15:00,86.8,73.1,29.80,South,180,3.4,6.3,64,0.00,,,0.00,WUHU216HW,2013-08-21 16:15:00,
2013-08-21 11:20:00,86.8,72.2,29.79,North,0,1.8,4.9,62,0.00,,,0.00,WUHU216HW,2013-08-21 16:20:00,
2013-08-21 11:25:00,87.3,73.2,29.80,SW,225,3.4,4.7,63,0.00,,,0.00,WUHU216HW,2013-08-21 16:25:00,
2013-08-21 11:30:00,87.3,71.8,29.80,WSW,248,4.0,5.8,60,0.00,,,0.00,WUHU216HW,2013-08-21 16:30:00,
2013-08-21 11:35:00,88.2,73.2,29.80,West,270,3.1,5.8,61,0.00,,,0.00,WUHU216HW,2013-08-21 16:35:00,
2013-08-21 11:40:00,89.5,72.2,29.80,WSW,248,1.1,10.5,57,0.00,,,0.00,WUHU216HW,2013-08-21 16:40:00,
2013-08-21 11:45:00,89.3,74.2,29.80,SSW,203,4.0,10.5,61,0.00,,,0.00,WUHU216HW,2013-08-21 16:45:00,
2013-08-21 11:50:00,88.9,73.8,29.80,South,180,4.7,8.7,61,0.00,,,0.00,WUHU216HW,2013-08-21 16:50:00,
2013-08-21 11:55:00,88.2,73.6,29.80,SSW,203,6.3,8.7,62,0.00,,,0.00,WUHU216HW,2013-08-21 16:55:00,
2013-08-21 12:00:00,87.8,72.4,29.80,SW,225,6.3,8.3,60,0.00,,,0.00,WUHU216HW,2013-08-21 17:00:00,
2013-08-21 12:05:00,87.7,71.6,29.80,SSW,203,2.5,6.9,59,0.00,,,0.00,WUHU216HW,2013-08-21 17:05:00,
2013-08-21 12:10:00,87.8,72.4,29.79,West,270,3.6,6.9,60,0.00,,,0.00,WUHU216HW,2013-08-21 17:10:00,
2013-08-21 12:15:00,88.6,71.9,29.79,NW,315,0.4,5.6,58,0.00,,,0.00,WUHU216HW,2013-08-21 17:15:00,
2013-08-21 12:20:00,89.3,72.5,29.79,SSW,203,5.4,5.4,58,0.00,,,0.00,WUHU216HW,2013-08-21 17:20:00,
2013-08-21 12:25:00,90.2,71.7,29.79,SSE,158,5.1,7.2,55,0.00,,,0.00,WUHU216HW,2013-08-21 17:25:00,
2013-08-21 12:30:00,89.5,71.1,29.79,ESE,113,2.9,7.8,55,0.00,,,0.00,WUHU216HW,2013-08-21 17:30:00,
2013-08-21 12:35:00,90.4,71.4,29.79,SE,135,5.8,7.8,54,0.00,,,0.00,WUHU216HW,2013-08-21 17:35:00,
2013-08-21 12:40:00,90.4,71.4,29.79,East,90,5.4,6.9,54,0.00,,,0.00,WUHU216HW,2013-08-21 17:40:00,
2013-08-21 12:45:00,90.0,71.7,29.78,South,180,3.8,6.0,55,0.00,,,0.00,WUHU216HW,2013-08-21 17:45:00,
2013-08-21 12:50:00,89.8,72.0,29.78,WSW,248,1.6,6.0,56,0.00,,,0.00,WUHU216HW,2013-08-21 17:50:00,
2013-08-21 12:55:00,89.8,72.0,29.78,SW,225,3.8,5.6,56,0.00,,,0.00,WUHU216HW,2013-08-21 17:55:00,
2013-08-21 13:00:00,89.8,72.0,29.78,South,180,3.8,5.4,56,0.00,,,0.00,WUHU216HW,2013-08-21 18:00:00,
2013-08-21 13:05:00,90.0,72.2,29.78,WNW,293,0.7,5.4,56,0.00,,,0.00,WUHU216HW,2013-08-21 18:05:00,
2013-08-21 13:10:00,90.0,72.7,29.78,SSW,203,3.6,5.1,57,0.00,,,0.00,WUHU216HW,2013-08-21 18:10:00,
2013-08-21 13:15:00,90.0,72.2,29.77,SSE,158,3.1,5.6,56,0.00,,,0.00,WUHU216HW,2013-08-21 18:15:00,
2013-08-21 13:20:00,90.0,69.5,29.77,SE,135,1.8,7.4,51,0.00,,,0.00,WUHU216HW,2013-08-21 18:20:00,
2013-08-21 13:25:00,90.4,71.4,29.77,West,270,2.7,7.4,54,0.00,,,0.00,WUHU216HW,2013-08-21 18:25:00,
2013-08-21 13:30:00,90.7,71.2,29.77,WSW,248,1.8,5.6,53,0.00,,,0.00,WUHU216HW,2013-08-21 18:30:00,
2013-08-21 13:35:00,91.1,70.9,29.77,NNW,338,1.8,5.1,52,0.00,,,0.00,WUHU216HW,2013-08-21 18:35:00,
2013-08-21 13:40:00,91.4,71.8,29.76,East,90,2.5,5.1,53,0.00,,,0.00,WUHU216HW,2013-08-21 18:40:00,
2013-08-21 13:45:00,91.8,71.1,29.76,SE,135,4.9,5.8,51,0.00,,,0.00,WUHU216HW,2013-08-21 18:45:00,
2013-08-21 13:50:00,92.9,70.2,29.76,SE,135,6.0,7.4,48,0.00,,,0.00,WUHU216HW,2013-08-21 18:50:00,
2013-08-21 13:55:00,93.2,70.6,29.76,SE,135,3.6,7.6,48,0.00,,,0.00,WUHU216HW,2013-08-21 18:55:00,
2013-08-21 14:00:00,93.8,69.8,29.75,SSE,158,1.8,7.6,46,0.00,,,0.00,WUHU216HW,2013-08-21 19:00:00,
2013-08-21 14:05:00,93.1,70.4,29.75,SE,135,5.4,5.4,48,0.00,,,0.00,WUHU216HW,2013-08-21 19:05:00,
2013-08-21 14:10:00,92.0,70.0,29.75,SE,135,5.6,5.6,49,0.00,,,0.00,WUHU216HW,2013-08-21 19:10:00,
2013-08-21 14:15:00,92.0,69.4,29.75,SE,135,6.3,7.4,48,0.00,,,0.00,WUHU216HW,2013-08-21 19:15:00,
2013-08-21 14:20:00,92.2,70.2,29.75,SE,135,4.7,8.5,49,0.00,,,0.00,WUHU216HW,2013-08-21 19:20:00,
2013-08-21 14:25:00,91.6,69.8,29.75,East,90,4.0,8.5,49,0.00,,,0.00,WUHU216HW,2013-08-21 19:25:00,
2013-08-21 14:30:00,91.4,69.6,29.74,SSE,158,2.2,8.1,49,0.00,,,0.00,WUHU216HW,2013-08-21 19:30:00,
2013-08-21 14:35:00,91.4,70.2,29.74,ENE,68,2.2,5.6,50,0.00,,,0.00,WUHU216HW,2013-08-21 19:35:00,
2013-08-21 14:40:00,91.6,69.8,29.73,ENE,68,5.1,5.8,49,0.00,,,0.00,WUHU216HW,2013-08-21 19:40:00,
2013-08-21 14:45:00,92.2,70.2,29.73,NNE,23,4.0,7.6,49,0.00,,,0.00,WUHU216HW,2013-08-21 19:45:00,
2013-08-21 14:50:00,93.4,70.0,29.73,SSW,203,4.3,8.5,47,0.00,,,0.00,WUHU216HW,2013-08-21 19:50:00,
2013-08-21 14:55:00,93.6,69.6,29.73,SE,135,3.4,8.5,46,0.00,,,0.00,WUHU216HW,2013-08-21 19:55:00,
2013-08-21 15:00:00,93.8,69.8,29.73,SE,135,2.2,7.6,46,0.00,,,0.00,WUHU216HW,2013-08-21 20:00:00,
2013-08-21 15:05:00,94.3,69.6,29.73,ENE,68,1.8,6.3,45,0.00,,,0.00,WUHU216HW,2013-08-21 20:05:00,
2013-08-21 15:10:00,93.6,69.0,29.72,SE,135,7.4,7.6,45,0.00,,,0.00,WUHU216HW,2013-08-21 20:10:00,
2013-08-21 15:15:00,92.7,69.4,29.72,SSE,158,2.7,7.6,47,0.00,,,0.00,WUHU216HW,2013-08-21 20:15:00,
2013-08-21 15:20:00,92.9,69.6,29.72,SSE,158,3.1,7.4,47,0.00,,,0.00,WUHU216HW,2013-08-21 20:20:00,
2013-08-21 15:25:00,93.2,69.8,29.72,SE,135,4.3,8.3,47,0.00,,,0.00,WUHU216HW,2013-08-21 20:25:00,
2013-08-21 15:30:00,93.2,69.2,29.72,SE,135,6.0,8.3,46,0.00,,,0.00,WUHU216HW,2013-08-21 20:30:00,
2013-08-21 15:35:00,92.9,69.0,29.72,SE,135,3.4,7.2,46,0.00,,,0.00,WUHU216HW,2013-08-21 20:35:00,
2013-08-21 15:40:00,92.5,68.6,29.72,SSE,158,3.6,6.0,46,0.00,,,0.00,WUHU216HW,2013-08-21 20:40:00,
2013-08-21 15:45:00,93.2,69.2,29.72,South,180,4.9,7.6,46,0.00,,,0.00,WUHU216HW,2013-08-21 20:45:00,
2013-08-21 15:50:00,95.0,69.7,29.71,SE,135,4.0,7.6,44,0.00,,,0.00,WUHU216HW,2013-08-21 20:50:00,
2013-08-21 15:55:00,95.8,68.9,29.71,SE,135,8.7,11.4,42,0.00,,,0.00,WUHU216HW,2013-08-21 20:55:00,
2013-08-21 16:00:00,95.0,69.7,29.71,SSE,158,3.1,11.4,44,0.00,,,0.00,WUHU216HW,2013-08-21 21:00:00,
2013-08-21 16:05:00,94.5,69.8,29.71,SSE,158,4.9,9.8,45,0.00,,,0.00,WUHU216HW,2013-08-21 21:05:00,
2013-08-21 16:10:00,94.1,69.5,29.70,SSE,158,5.8,9.8,45,0.00,,,0.00,WUHU216HW,2013-08-21 21:10:00,
2013-08-21 16:15:00,93.1,69.8,29.70,East,90,5.1,7.6,47,0.00,,,0.00,WUHU216HW,2013-08-21 21:15:00,
2013-08-21 16:20:00,92.5,69.2,29.70,ENE,68,4.5,7.6,47,0.00,,,0.00,WUHU216HW,2013-08-21 21:20:00,
2013-08-21 16:25:00,92.2,69.6,29.70,South,180,6.0,7.6,48,0.00,,,0.00,WUHU216HW,2013-08-21 21:25:00,
2013-08-21 16:30:00,92.9,70.2,29.70,South,180,6.0,6.5,48,0.00,,,0.00,WUHU216HW,2013-08-21 21:30:00,
2013-08-21 16:35:00,93.6,70.2,29.70,SE,135,3.8,6.7,47,0.00,,,0.00,WUHU216HW,2013-08-21 21:35:00,
2013-08-21 16:40:00,93.6,70.2,29.69,ESE,113,3.4,6.7,47,0.00,,,0.00,WUHU216HW,2013-08-21 21:40:00,
2013-08-21 16:45:00,93.4,70.0,29.69,South,180,7.4,9.4,47,0.00,,,0.00,WUHU216HW,2013-08-21 21:45:00,
2013-08-21 16:50:00,93.6,70.2,29.69,ESE,113,4.3,9.4,47,0.00,,,0.00,WUHU216HW,2013-08-21 21:50:00,
2013-08-21 16:55:00,93.8,70.4,29.68,SE,135,4.0,7.4,47,0.00,,,0.00,WUHU216HW,2013-08-21 21:55:00,
2013-08-21 17:00:00,94.0,69.9,29.68,ESE,113,5.4,7.4,46,0.00,,,0.00,WUHU216HW,2013-08-21 22:00:00,
2013-08-21 17:05:00,94.0,69.9,29.68,East,90,4.5,7.8,46,0.00,,,0.00,WUHU216HW,2013-08-21 22:05:00,
2013-08-21 17:10:00,94.0,69.9,29.68,ESE,113,6.9,7.8,46,0.00,,,0.00,WUHU216HW,2013-08-21 22:10:00,
2013-08-21 17:15:00,93.1,69.0,29.68,ESE,113,8.3,8.3,46,0.00,,,0.00,WUHU216HW,2013-08-21 22:15:00,
2013-08-21 17:20:00,92.5,69.2,29.68,SE,135,6.9,8.3,47,0.00,,,0.00,WUHU216HW,2013-08-21 22:20:00,
2013-08-21 17:25:00,92.2,69.0,29.68,SE,135,6.3,8.3,47,0.00,,,0.00,WUHU216HW,2013-08-21 22:25:00,
2013-08-21 17:30:00,92.2,69.0,29.68,SE,135,10.5,10.5,47,0.00,,,0.00,WUHU216HW,2013-08-21 22:30:00,
2013-08-21 17:35:00,92.2,69.0,29.68,SSE,158,4.9,10.5,47,0.00,,,0.00,WUHU216HW,2013-08-21 22:35:00,
2013-08-21 17:40:00,92.2,68.2,29.69,South,180,5.1,10.5,46,0.00,,,0.00,WUHU216HW,2013-08-21 22:40:00,
2013-08-21 17:45:00,92.5,68.6,29.69,SW,225,6.7,11.2,46,0.00,,,0.00,WUHU216HW,2013-08-21 22:45:00,
2013-08-21 17:50:00,93.6,67.6,29.69,SSE,158,7.8,11.6,43,0.00,,,0.00,WUHU216HW,2013-08-21 22:50:00,
2013-08-21 17:55:00,94.3,68.3,29.69,SSE,158,7.8,11.6,43,0.00,,,0.00,WUHU216HW,2013-08-21 22:55:00,
2013-08-21 18:00:00,94.3,68.3,29.69,SSE,158,7.2,11.4,43,0.00,,,0.00,WUHU216HW,2013-08-21 23:00:00,
2013-08-21 18:05:00,94.0,67.3,29.69,ESE,113,6.9,12.5,42,0.00,,,0.00,WUHU216HW,2013-08-21 23:05:00,
2013-08-21 18:10:00,93.2,67.3,29.69,SSE,158,10.7,12.5,43,0.00,,,0.00,WUHU216HW,2013-08-21 23:10:00,
2013-08-21 18:15:00,92.2,68.2,29.69,SSE,158,9.4,12.5,46,0.00,,,0.00,WUHU216HW,2013-08-21 23:15:00,
2013-08-21 18:20:00,91.8,68.6,29.70,South,180,14.1,15.0,47,0.00,,,0.00,WUHU216HW,2013-08-21 23:20:00,
2013-08-21 18:25:00,91.4,69.0,29.70,SSE,158,13.4,15.0,48,0.00,,,0.00,WUHU216HW,2013-08-21 23:25:00,
2013-08-21 18:30:00,91.4,70.2,29.69,South,180,4.5,15.7,50,0.00,,,0.00,WUHU216HW,2013-08-21 23:30:00,
2013-08-21 18:35:00,91.4,70.2,29.69,SSE,158,11.9,15.7,50,0.00,,,0.00,WUHU216HW,2013-08-21 23:35:00,
2013-08-21 18:40:00,91.1,69.8,29.69,SSW,203,11.2,16.6,50,0.00,,,0.00,WUHU216HW,2013-08-21 23:40:00,
2013-08-21 18:45:00,91.1,69.2,29.70,South,180,12.1,16.8,49,0.00,,,0.00,WUHU216HW,2013-08-21 23:45:00,
2013-08-21 18:50:00,91.4,69.6,29.70,SSW,203,8.1,16.8,49,0.00,,,0.00,WUHU216HW,2013-08-21 23:50:00,
2013-08-21 18:55:00,91.4,68.2,29.70,SSE,158,8.5,14.3,47,0.00,,,0.00,WUHU216HW,2013-08-21 23:55:00,
2013-08-21 19:00:00,91.3,68.8,29.70,SSE,158,8.9,14.8,48,0.00,,,0.00,WUHU216HW,2013-08-22 00:00:00,
2013-08-21 19:05:00,91.1,69.2,29.70,SE,135,9.4,14.8,49,0.00,,,0.00,WUHU216HW,2013-08-22 00:05:00,
2013-08-21 19:10:00,89.8,69.3,29.70,SSE,158,14.8,17.9,51,0.00,,,0.00,WUHU216HW,2013-08-22 00:10:00,
2013-08-21 19:15:00,89.5,68.9,29.70,South,180,11.0,17.9,51,0.00,,,0.00,WUHU216HW,2013-08-22 00:15:00,
2013-08-21 19:20:00,88.9,69.0,29.70,SSE,158,9.8,15.7,52,0.00,,,0.00,WUHU216HW,2013-08-22 00:20:00,
2013-08-21 19:25:00,88.9,69.0,29.70,SSE,158,5.1,15.7,52,0.00,,,0.00,WUHU216HW,2013-08-22 00:25:00,
2013-08-21 19:30:00,88.6,69.2,29.70,SW,225,9.4,11.0,53,0.00,,,0.00,WUHU216HW,2013-08-22 00:30:00,
2013-08-21 19:35:00,88.6,69.2,29.69,South,180,6.9,10.3,53,0.00,,,0.00,WUHU216HW,2013-08-22 00:35:00,
2013-08-21 19:40:00,88.4,69.0,29.69,ESE,113,7.6,9.8,53,0.00,,,0.00,WUHU216HW,2013-08-22 00:40:00,
2013-08-21 19:45:00,89.3,69.3,29.69,SSE,158,6.7,11.2,52,0.00,,,0.00,WUHU216HW,2013-08-22 00:45:00,
2013-08-21 19:50:00,89.6,69.7,29.69,SE,135,4.9,11.2,52,0.00,,,0.00,WUHU216HW,2013-08-22 00:50:00,
2013-08-21 19:55:00,89.6,69.7,29.69,South,180,5.4,8.5,52,0.00,,,0.00,WUHU216HW,2013-08-22 00:55:00,
2013-08-21 20:00:00,89.5,69.5,29.69,SE,135,3.8,8.3,52,0.00,,,0.00,WUHU216HW,2013-08-22 01:00:00,
2013-08-21 20:05:00,88.9,69.6,29.69,South,180,4.0,7.6,53,0.00,,,0.00,WUHU216HW,2013-08-22 01:05:00,
2013-08-21 20:10:00,88.0,69.3,29.70,SE,135,4.9,6.9,54,0.00,,,0.00,WUHU216HW,2013-08-22 01:10:00,
2013-08-21 20:15:00,87.7,68.9,29.70,SSW,203,4.5,6.3,54,0.00,,,0.00,WUHU216HW,2013-08-22 01:15:00,
2013-08-21 20:20:00,87.5,69.3,29.70,SSE,158,4.0,5.4,55,0.00,,,0.00,WUHU216HW,2013-08-22 01:20:00,
2013-08-21 20:25:00,87.3,69.1,29.71,SSE,158,4.0,5.4,55,0.00,,,0.00,WUHU216HW,2013-08-22 01:25:00,
2013-08-21 20:30:00,87.1,68.9,29.71,SSE,158,8.9,12.3,55,0.00,,,0.00,WUHU216HW,2013-08-22 01:30:00,
2013-08-21 20:35:00,86.8,69.1,29.71,SE,135,9.2,12.3,56,0.00,,,0.00,WUHU216HW,2013-08-22 01:35:00,
2013-08-21 20:40:00,87.1,69.5,29.71,SE,135,4.7,11.4,56,0.00,,,0.00,WUHU216HW,2013-08-22 01:40:00,
2013-08-21 20:45:00,87.7,70.0,29.71,SSW,203,4.3,10.5,56,0.00,,,0.00,WUHU216HW,2013-08-22 01:45:00,
2013-08-21 20:50:00,87.5,69.8,29.71,South,180,8.5,11.0,56,0.00,,,0.00,WUHU216HW,2013-08-22 01:50:00,
2013-08-21 20:55:00,87.1,70.0,29.71,SSE,158,6.7,11.0,57,0.00,,,0.00,WUHU216HW,2013-08-22 01:55:00,
2013-08-21 21:00:00,86.4,69.8,29.71,SE,135,9.8,13.4,58,0.00,,,0.00,WUHU216HW,2013-08-22 02:00:00,
2013-08-21 21:05:00,85.3,69.9,29.72,South,180,9.8,16.6,60,0.00,,,0.00,WUHU216HW,2013-08-22 02:05:00,
2013-08-21 21:10:00,85.0,70.0,29.72,South,180,13.4,16.6,61,0.00,,,0.00,WUHU216HW,2013-08-22 02:10:00,
2013-08-21 21:15:00,84.8,70.4,29.73,SSW,203,8.3,14.3,62,0.00,,,0.00,WUHU216HW,2013-08-22 02:15:00,
2013-08-21 21:20:00,84.6,70.2,29.73,South,180,9.2,13.4,62,0.00,,,0.00,WUHU216HW,2013-08-22 02:20:00,
2013-08-21 21:25:00,84.4,70.5,29.74,South,180,8.3,13.2,63,0.00,,,0.00,WUHU216HW,2013-08-22 02:25:00,
2013-08-21 21:30:00,84.2,70.3,29.74,SSE,158,8.3,11.2,63,0.00,,,0.00,WUHU216HW,2013-08-22 02:30:00,
2013-08-21 21:35:00,84.2,70.3,29.75,South,180,7.6,11.6,63,0.00,,,0.00,WUHU216HW,2013-08-22 02:35:00,
2013-08-21 21:40:00,84.6,70.7,29.75,South,180,6.9,11.6,63,0.00,,,0.00,WUHU216HW,2013-08-22 02:40:00,
2013-08-21 21:45:00,84.8,70.8,29.75,SE,135,6.0,9.4,63,0.00,,,0.00,WUHU216HW,2013-08-22 02:45:00,
2013-08-21 21:50:00,85.0,70.5,29.76,South,180,7.6,9.4,62,0.00,,,0.00,WUHU216HW,2013-08-22 02:50:00,
2013-08-21 21:55:00,85.0,70.5,29.76,South,180,5.8,10.3,62,0.00,,,0.00,WUHU216HW,2013-08-22 02:55:00,
2013-08-21 22:00:00,84.6,70.7,29.76,SSW,203,6.0,10.3,63,0.00,,,0.00,WUHU216HW,2013-08-22 03:00:00,
2013-08-21 22:05:00,84.4,70.5,29.76,South,180,6.0,8.7,63,0.00,,,0.00,WUHU216HW,2013-08-22 03:05:00,
2013-08-21 22:10:00,84.2,70.7,29.77,SSW,203,5.8,8.9,64,0.00,,,0.00,WUHU216HW,2013-08-22 03:10:00,
2013-08-21 22:15:00,84.1,70.6,29.77,South,180,4.0,8.9,64,0.00,,,0.00,WUHU216HW,2013-08-22 03:15:00,
2013-08-21 22:20:00,83.9,70.8,29.77,WSW,248,9.2,9.2,65,0.00,,,0.00,WUHU216HW,2013-08-22 03:20:00,
2013-08-21 22:25:00,83.9,70.8,29.77,SW,225,5.4,9.2,65,0.00,,,0.00,WUHU216HW,2013-08-22 03:25:00,
2013-08-21 22:30:00,83.5,70.9,29.77,South,180,6.7,8.7,66,0.00,,,0.00,WUHU216HW,2013-08-22 03:30:00,
2013-08-21 22:35:00,83.3,70.7,29.78,WSW,248,4.9,7.6,66,0.00,,,0.00,WUHU216HW,2013-08-22 03:35:00,
2013-08-21 22:40:00,83.3,70.7,29.77,SSW,203,8.5,9.8,66,0.00,,,0.00,WUHU216HW,2013-08-22 03:40:00,
2013-08-21 22:45:00,83.2,71.0,29.77,South,180,7.4,10.3,67,0.00,,,0.00,WUHU216HW,2013-08-22 03:45:00,
2013-08-21 22:50:00,83.0,70.8,29.77,SSW,203,6.9,10.3,67,0.00,,,0.00,WUHU216HW,2013-08-22 03:50:00,
2013-08-21 22:55:00,83.0,70.8,29.77,SSW,203,5.4,8.5,67,0.00,,,0.00,WUHU216HW,2013-08-22 03:55:00,
2013-08-21 23:00:00,82.8,70.7,29.77,SSE,158,6.9,8.7,67,0.00,,,0.00,WUHU216HW,2013-08-22 04:00:00,
2013-08-21 23:01:00,82.8,70.7,29.77,SSW,203,5.1,8.7,67,0.00,,,0.00,WUHU216HW,2013-08-22 04:01:00,
2013-08-21 23:06:00,82.6,70.9,29.77,South,180,4.9,8.7,68,0.00,,,0.00,WUHU216HW,2013-08-22 04:06:00,
2013-08-21 23:11:00,82.4,71.2,29.77,South,180,4.7,7.6,69,0.00,,,0.00,WUHU216HW,2013-08-22 04:11:00,
2013-08-21 23:16:00,82.3,71.0,29.77,SW,225,4.0,7.6,69,0.00,,,0.00,WUHU216HW,2013-08-22 04:16:00,
2013-08-21 23:21:00,82.3,70.6,29.77,SW,225,4.7,7.2,68,0.00,,,0.00,WUHU216HW,2013-08-22 04:21:00,
2013-08-21 23:26:00,82.3,70.6,29.77,SSW,203,2.2,5.6,68,0.00,,,0.00,WUHU216HW,2013-08-22 04:26:00,
2013-08-21 23:31:00,82.3,71.5,29.77,SSW,203,5.4,5.6,70,0.00,,,0.00,WUHU216HW,2013-08-22 04:31:00,
2013-08-21 23:36:00,82.4,71.2,29.77,SSW,203,2.7,5.4,69,0.00,,,0.00,WUHU216HW,2013-08-22 04:36:00,
2013-08-21 23:41:00,82.3,70.6,29.77,South,180,2.5,4.7,68,0.00,,,0.00,WUHU216HW,2013-08-22 04:41:00,
2013-08-21 23:46:00,81.9,70.8,29.77,South,180,2.5,3.6,69,0.00,,,0.00,WUHU216HW,2013-08-22 04:46:00,
2013-08-21 23:51:00,81.5,70.8,29.77,SSE,158,2.9,3.4,70,0.00,,,0.00,WUHU216HW,2013-08-22 04:51:00,
2013-08-21 23:56:00,81.4,71.1,29.77,SE,135,1.1,3.4,71,0.00,,,0.00,WUHU216HW,2013-08-22 04:56:00,